createdAt,value
2023-11-05T00:01:24.909Z,1.40
2023-11-05T00:03:51.756Z,1.45
2023-11-05T00:06:18.399Z,1.40
2023-11-05T00:08:45.016Z,1.67
2023-11-05T00:11:11.641Z,1.80
2023-11-05T00:13:38.395Z,1.65
2023-11-05T00:16:05.517Z,1.50
2023-11-05T00:18:32.240Z,1.48
2023-11-05T00:20:58.910Z,1.40
2023-11-05T00:25:53.714Z,1.30
2023-11-05T00:28:20.326Z,1.30
2023-11-05T00:30:46.960Z,1.52
2023-11-05T00:33:13.645Z,4.65
2023-11-05T00:35:40.478Z,2.30
2023-11-05T00:38:07.041Z,2.05
2023-11-05T00:43:00.043Z,1.73
2023-11-05T00:47:53.925Z,1.73
2023-11-05T00:50:20.541Z,1.98
2023-11-05T00:52:47.037Z,1.73
2023-11-05T00:57:40.024Z,1.60
2023-11-05T01:02:49.993Z,1.67
2023-11-05T01:05:17.368Z,1.70
2023-11-05T01:07:44.164Z,1.50
2023-11-05T01:10:10.986Z,1.55
2023-11-05T01:12:37.527Z,1.67
2023-11-05T01:17:33.501Z,1.58
2023-11-05T01:22:27.241Z,1.55
2023-11-05T01:24:53.790Z,1.55
2023-11-05T01:29:47.208Z,1.63
2023-11-05T01:32:13.716Z,1.80
2023-11-05T01:37:06.736Z,1.98
2023-11-05T01:39:33.269Z,1.90
2023-11-05T01:41:59.846Z,1.75
2023-11-05T01:46:53.459Z,6.72
2023-11-05T01:49:20.140Z,9.85
2023-11-05T01:51:47.581Z,4.13
2023-11-05T01:54:14.181Z,2.10
2023-11-05T01:56:40.784Z,1.90
2023-11-05T01:59:07.353Z,1.70
2023-11-05T02:01:34.305Z,1.80
2023-11-05T02:04:01.147Z,1.80
2023-11-05T02:06:27.754Z,1.88
2023-11-05T02:08:54.369Z,1.85
2023-11-05T02:11:20.947Z,2.00
2023-11-05T02:13:52.652Z,2.08
2023-11-05T02:16:23.734Z,2.00
2023-11-05T02:18:50.853Z,1.70
2023-11-05T02:21:31.964Z,1.90
2023-11-05T02:23:58.476Z,2.30
2023-11-05T02:28:51.563Z,2.20
2023-11-05T02:31:18.353Z,1.90
2023-11-05T02:33:45.820Z,1.88
2023-11-05T02:36:12.795Z,2.00
2023-11-05T02:38:39.929Z,2.50
2023-11-05T02:41:08.374Z,1.60
2023-11-05T02:43:35.236Z,1.88
2023-11-05T02:46:01.912Z,2.03
2023-11-05T02:48:28.729Z,2.00
2023-11-05T02:50:55.339Z,2.05
2023-11-05T02:53:22.424Z,2.92
2023-11-05T02:55:49.686Z,2.45
2023-11-05T02:58:16.490Z,2.35
2023-11-05T03:00:44.871Z,2.50
2023-11-05T03:03:15.450Z,2.45
2023-11-05T03:05:43.662Z,2.28
2023-11-05T03:08:11.478Z,2.00
2023-11-05T03:10:38.520Z,2.17
2023-11-05T03:13:05.131Z,1.83
2023-11-05T03:15:32.159Z,2.25
2023-11-05T03:17:59.047Z,1.88
2023-11-05T03:20:25.642Z,2.10
2023-11-05T03:25:18.714Z,2.25
2023-11-05T03:27:45.238Z,2.47
2023-11-05T03:30:12.790Z,2.38
2023-11-05T03:32:39.329Z,2.20
2023-11-05T03:35:07.059Z,2.33
2023-11-05T03:37:33.596Z,1.90
2023-11-05T03:40:00.298Z,1.80
2023-11-05T03:42:27.171Z,2.03
2023-11-05T03:44:53.702Z,2.00
2023-11-05T03:47:20.453Z,2.83
2023-11-05T03:49:46.960Z,2.25
2023-11-05T03:52:13.627Z,2.22
2023-11-05T03:54:40.280Z,2.80
2023-11-05T03:57:07.752Z,2.53
2023-11-05T03:59:34.774Z,2.25
2023-11-05T04:02:01.277Z,2.75
2023-11-05T04:09:22.065Z,2.35
2023-11-05T04:11:48.705Z,2.83
2023-11-05T04:14:15.366Z,2.42
2023-11-05T04:16:42.032Z,2.70
2023-11-05T04:19:11.778Z,2.58
2023-11-05T04:21:38.353Z,3.03
2023-11-05T04:24:05.393Z,3.53
2023-11-05T04:26:31.896Z,3.20
2023-11-05T04:31:25.983Z,2.85
2023-11-05T04:33:52.666Z,2.75
2023-11-05T04:36:19.194Z,2.83
2023-11-05T04:38:46.157Z,2.83
2023-11-05T04:41:12.687Z,2.78
2023-11-05T04:43:39.231Z,2.80
2023-11-05T04:46:05.805Z,2.90
2023-11-05T04:48:32.415Z,3.65
2023-11-05T04:50:59.056Z,3.78
2023-11-05T04:53:25.634Z,4.10
2023-11-05T04:55:52.168Z,3.83
2023-11-05T05:00:45.264Z,3.13
2023-11-05T05:05:38.555Z,2.08
2023-11-05T05:08:05.237Z,2.20
2023-11-05T05:10:31.858Z,2.17
2023-11-05T05:12:58.376Z,2.08
2023-11-05T05:17:51.370Z,3.70
2023-11-05T05:20:17.965Z,2.88
2023-11-05T05:22:44.506Z,3.38
2023-11-05T05:25:11.557Z,3.83
2023-11-05T05:27:38.186Z,3.25
2023-11-05T05:30:05.485Z,3.00
2023-11-05T05:32:32.100Z,3.20
2023-11-05T05:34:58.628Z,2.95
2023-11-05T05:37:25.172Z,2.63
2023-11-05T05:39:51.730Z,2.95
2023-11-05T05:42:18.223Z,4.05
2023-11-05T05:47:12.188Z,3.78
2023-11-05T05:49:38.815Z,3.20
2023-11-05T05:52:05.687Z,2.80
2023-11-05T05:54:32.535Z,3.55
2023-11-05T05:56:59.178Z,2.75
2023-11-05T05:59:25.675Z,2.28
2023-11-05T06:04:19.060Z,2.97
2023-11-05T06:06:45.697Z,2.20
2023-11-05T06:09:17.458Z,2.20
2023-11-05T06:11:44.017Z,2.03
2023-11-05T06:14:10.589Z,2.08
2023-11-05T06:16:37.238Z,2.25
2023-11-05T06:19:03.783Z,2.40
2023-11-05T06:21:30.349Z,3.25
2023-11-05T06:23:56.854Z,3.45
2023-11-05T06:26:25.365Z,3.53
2023-11-05T06:28:51.963Z,2.92
2023-11-05T06:31:19.181Z,2.63
2023-11-05T06:33:45.775Z,3.08
2023-11-05T06:36:12.283Z,3.10
2023-11-05T06:38:38.823Z,3.35
2023-11-05T06:41:05.300Z,3.13
2023-11-05T06:43:31.854Z,3.60
2023-11-05T06:45:58.385Z,5.55
2023-11-05T06:48:25.275Z,5.53
2023-11-05T06:50:51.993Z,4.68
2023-11-05T06:53:18.598Z,5.70
2023-11-05T06:55:45.100Z,5.15
2023-11-05T06:58:12.551Z,3.97
2023-11-05T07:00:42.587Z,3.05
2023-11-05T07:03:09.257Z,2.90
2023-11-05T07:05:35.824Z,2.80
2023-11-05T07:08:04.678Z,2.17
2023-11-05T07:10:31.380Z,2.33
2023-11-05T07:12:57.925Z,2.45
2023-11-05T07:15:25.442Z,2.42
2023-11-05T07:17:52.056Z,2.53
2023-11-05T07:20:18.771Z,2.13
2023-11-05T07:22:47.653Z,2.42
2023-11-05T07:25:14.341Z,2.72
2023-11-05T07:27:40.908Z,2.38
2023-11-05T07:32:34.410Z,2.00
2023-11-05T07:35:00.926Z,2.10
2023-11-05T07:39:55.698Z,1.88
2023-11-05T07:42:22.602Z,1.90
2023-11-05T07:44:49.167Z,1.60
2023-11-05T07:47:16.493Z,2.55
2023-11-05T07:49:43.592Z,2.00
2023-11-05T07:52:10.334Z,1.90
2023-11-05T07:54:36.928Z,1.50
2023-11-05T07:57:03.897Z,1.42
2023-11-05T07:59:31.620Z,9.52
2023-11-05T08:01:59.186Z,2.63
2023-11-05T08:04:26.408Z,2.03
2023-11-05T08:06:55.738Z,1.77
2023-11-05T08:09:24.400Z,1.52
2023-11-05T08:11:51.138Z,1.55
2023-11-05T08:14:17.622Z,1.70
2023-11-05T08:19:10.560Z,1.42
2023-11-05T08:24:04.123Z,1.70
2023-11-05T08:26:30.879Z,1.50
2023-11-05T08:28:58.032Z,1.60
2023-11-05T08:31:25.259Z,1.48
2023-11-05T08:33:51.890Z,1.75
2023-11-05T08:36:18.559Z,6.43
2023-11-05T08:38:45.078Z,3.28
2023-11-05T08:43:38.075Z,2.35
2023-11-05T08:46:05.018Z,5.55
2023-11-05T08:48:33.233Z,6.80
2023-11-05T08:50:59.849Z,2.20
2023-11-05T08:53:27.447Z,2.67
2023-11-05T08:55:54.194Z,2.40
2023-11-05T08:58:20.820Z,2.10
2023-11-05T09:00:47.477Z,1.67
2023-11-05T09:03:14.265Z,1.95
2023-11-05T09:05:41.924Z,1.63
2023-11-05T09:08:10.241Z,1.80
2023-11-05T09:10:37.068Z,1.58
2023-11-05T09:13:05.662Z,1.50
2023-11-05T09:15:32.636Z,1.60
2023-11-05T09:17:59.813Z,1.67
2023-11-05T09:20:26.589Z,1.30
2023-11-05T09:22:53.360Z,1.55
2023-11-05T09:25:20.088Z,1.55
2023-11-05T09:27:46.690Z,1.17
2023-11-05T09:32:44.841Z,1.42
2023-11-05T09:35:16.206Z,1.50
2023-11-05T09:37:47.026Z,1.45
2023-11-05T09:40:16.746Z,0.90
2023-11-05T09:43:05.990Z,1.45
2023-11-05T09:45:36.877Z,1.23
2023-11-05T09:48:09.108Z,1.08
2023-11-05T09:50:41.788Z,1.10
2023-11-05T09:53:19.211Z,1.42
2023-11-05T09:55:47.883Z,1.20
2023-11-05T09:58:15.424Z,1.30
2023-11-05T10:00:42.122Z,1.20
2023-11-05T10:03:11.030Z,0.90
2023-11-05T10:05:43.896Z,0.80
2023-11-05T10:08:11.761Z,1.00
2023-11-05T10:10:45.158Z,1.27
2023-11-05T10:13:13.080Z,1.10
2023-11-05T10:15:41.348Z,1.42
2023-11-05T10:18:19.747Z,0.98
2023-11-05T10:20:51.748Z,1.10
2023-11-05T10:23:18.723Z,1.20
2023-11-05T10:25:49.441Z,1.38
2023-11-05T10:28:16.105Z,1.23
2023-11-05T10:30:45.704Z,1.20
2023-11-05T10:33:13.417Z,1.40
2023-11-05T10:35:41.163Z,0.90
2023-11-05T10:38:11.815Z,1.40
2023-11-05T10:40:39.515Z,1.20
2023-11-05T10:43:08.055Z,1.15
2023-11-05T10:45:35.797Z,1.10
2023-11-05T10:48:03.993Z,1.00
2023-11-05T10:50:32.823Z,0.98
2023-11-05T10:53:01.002Z,0.95
2023-11-05T10:55:38.933Z,0.93
2023-11-05T10:58:17.735Z,0.95
2023-11-05T11:00:50.620Z,1.10
2023-11-05T11:03:19.406Z,0.95
2023-11-05T11:05:46.223Z,1.05
2023-11-05T11:08:22.551Z,1.15
2023-11-05T11:10:50.469Z,1.00
2023-11-05T11:13:19.259Z,1.10
2023-11-05T11:15:52.721Z,1.33
2023-11-05T11:18:25.331Z,1.23
2023-11-05T11:20:55.930Z,1.50
2023-11-05T11:23:23.762Z,1.67
2023-11-05T11:25:59.377Z,1.63
2023-11-05T11:28:30.329Z,1.60
2023-11-05T11:30:57.949Z,1.20
2023-11-05T11:33:26.222Z,0.90
2023-11-05T11:35:52.891Z,2.05
2023-11-05T11:38:19.635Z,1.20
2023-11-05T11:40:58.848Z,1.20
2023-11-05T11:43:27.823Z,0.93
2023-11-05T11:45:54.687Z,1.08
2023-11-05T11:48:26.649Z,1.27
2023-11-05T11:51:11.323Z,1.20
2023-11-05T11:53:41.107Z,1.10
2023-11-05T11:56:08.706Z,1.10
2023-11-05T11:58:40.227Z,1.27
2023-11-05T12:01:16.897Z,1.10
2023-11-05T12:03:44.721Z,1.15
2023-11-05T12:06:11.679Z,1.10
2023-11-05T12:08:46.741Z,1.10
2023-11-05T12:11:20.267Z,0.88
2023-11-05T12:13:48.127Z,1.20
2023-11-05T12:16:18.868Z,1.33
2023-11-05T12:18:46.544Z,1.42
2023-11-05T12:21:15.635Z,1.25
2023-11-05T12:23:43.197Z,1.50
2023-11-05T12:26:11.663Z,1.55
2023-11-05T12:28:38.485Z,1.45
2023-11-05T12:31:07.904Z,1.67
2023-11-05T12:33:36.078Z,1.33
2023-11-05T12:36:03.665Z,1.10
2023-11-05T12:38:30.871Z,1.27
2023-11-05T12:40:57.727Z,1.40
2023-11-05T12:43:25.509Z,1.02
2023-11-05T12:45:56.554Z,1.40
2023-11-05T12:48:31.015Z,1.35
2023-11-05T12:50:59.836Z,1.33
2023-11-05T12:53:26.483Z,1.50
2023-11-05T12:56:01.787Z,1.40
2023-11-05T12:58:28.349Z,1.02
2023-11-05T13:00:54.997Z,1.17
2023-11-05T13:03:21.857Z,1.30
2023-11-05T13:05:48.689Z,1.02
2023-11-05T13:08:15.351Z,1.35
2023-11-05T13:10:42.883Z,1.30
2023-11-05T13:13:09.412Z,1.30
2023-11-05T13:18:03.754Z,1.17
2023-11-05T13:20:30.283Z,1.30
2023-11-05T13:25:23.834Z,1.48
2023-11-05T13:27:50.519Z,1.33
2023-11-05T13:30:17.891Z,1.25
2023-11-05T13:32:47.973Z,1.20
2023-11-05T13:35:19.038Z,1.70
2023-11-05T13:37:47.153Z,1.40
2023-11-05T13:40:14.206Z,1.42
2023-11-05T13:42:40.966Z,1.40
2023-11-05T13:45:10.763Z,1.58
2023-11-05T13:47:38.447Z,1.40
2023-11-05T13:50:08.549Z,1.27
2023-11-05T13:52:36.126Z,1.00
2023-11-05T13:55:03.658Z,1.40
2023-11-05T13:57:30.244Z,1.25
2023-11-05T13:59:58.327Z,1.85
2023-11-05T14:02:28.329Z,2.22
2023-11-05T14:04:54.979Z,1.80
2023-11-05T14:07:21.701Z,2.22
2023-11-05T14:09:48.660Z,2.67
2023-11-05T14:12:15.575Z,2.10
2023-11-05T14:17:08.980Z,1.70
2023-11-05T14:19:35.594Z,1.70
2023-11-05T14:24:29.738Z,1.60
2023-11-05T14:26:56.390Z,1.70
2023-11-05T14:29:24.057Z,1.70
2023-11-05T14:31:50.849Z,1.63
2023-11-05T14:34:17.676Z,1.92
2023-11-05T14:36:44.386Z,1.67
2023-11-05T14:39:11.351Z,2.22
2023-11-05T14:41:39.645Z,1.40
2023-11-05T14:44:07.683Z,1.23
2023-11-05T14:46:34.944Z,1.15
2023-11-05T14:49:02.732Z,1.02
2023-11-05T14:51:29.650Z,1.52
2023-11-05T14:53:56.202Z,1.30
2023-11-05T14:58:49.239Z,1.25
2023-11-05T15:01:18.841Z,1.85
2023-11-05T15:03:48.604Z,1.60
2023-11-05T15:06:15.222Z,1.58
2023-11-05T15:08:42.046Z,1.77
2023-11-05T15:11:08.919Z,1.95
2023-11-05T15:13:35.533Z,1.33
2023-11-05T15:16:02.436Z,1.42
2023-11-05T15:18:29.082Z,1.25
2023-11-05T15:20:55.681Z,1.60
2023-11-05T15:25:50.324Z,1.58
2023-11-05T15:28:24.925Z,1.50
2023-11-05T15:30:52.049Z,1.60
2023-11-05T15:33:18.770Z,1.45
2023-11-05T15:35:45.754Z,1.77
2023-11-05T15:38:12.321Z,2.05
2023-11-05T15:43:05.771Z,1.70
2023-11-05T15:45:32.263Z,5.63
2023-11-05T15:50:25.368Z,2.25
2023-11-05T15:52:52.224Z,9.65
2023-11-05T15:55:19.589Z,13.18
2023-11-05T15:57:46.193Z,14.55
2023-11-05T16:00:16.332Z,7.80
2023-11-05T16:02:44.109Z,3.22
2023-11-05T16:05:12.728Z,5.32
2023-11-05T16:07:42.157Z,9.23
2023-11-05T16:10:09.557Z,3.65
2023-11-05T16:12:39.263Z,2.00
2023-11-05T16:15:07.932Z,6.13
2023-11-05T16:17:35.100Z,2.90
2023-11-05T16:20:02.657Z,5.10
2023-11-05T16:22:29.437Z,2.33
2023-11-05T16:24:56.068Z,2.42
2023-11-05T16:29:49.929Z,1.90
2023-11-05T16:32:16.484Z,2.13
2023-11-05T16:37:10.568Z,1.90
2023-11-05T16:39:39.992Z,1.88
2023-11-05T16:42:07.689Z,1.60
2023-11-05T16:47:01.363Z,2.42
2023-11-05T16:49:30.989Z,2.17
2023-11-05T16:51:58.455Z,2.78
2023-11-05T16:54:28.626Z,7.03
2023-11-05T16:56:57.011Z,2.03
2023-11-05T16:59:23.967Z,1.80
2023-11-05T17:01:51.243Z,1.83
2023-11-05T17:04:23.038Z,2.00
2023-11-05T17:06:49.813Z,1.52
2023-11-05T17:09:16.670Z,1.98
2023-11-05T17:11:44.629Z,3.00
2023-11-05T17:14:12.555Z,1.95
2023-11-05T17:16:43.502Z,2.47
2023-11-05T17:19:11.981Z,2.20
2023-11-05T17:21:39.565Z,2.00
2023-11-05T17:24:07.133Z,1.70
2023-11-05T17:26:35.546Z,1.90
2023-11-05T17:29:03.837Z,1.60
2023-11-05T17:31:31.429Z,1.98
2023-11-05T17:33:58.655Z,3.03
2023-11-05T17:36:25.475Z,3.75
2023-11-05T17:38:52.741Z,2.05
2023-11-05T17:41:22.209Z,2.38
2023-11-05T17:43:49.895Z,3.05
2023-11-05T17:46:17.423Z,2.20
2023-11-05T17:48:44.627Z,2.38
2023-11-05T17:51:11.657Z,2.75
2023-11-05T17:53:38.348Z,3.15
2023-11-05T17:56:05.937Z,7.97
2023-11-05T17:58:35.106Z,3.60
2023-11-05T18:01:01.939Z,2.65
2023-11-05T18:03:28.875Z,2.30
2023-11-05T18:05:57.067Z,2.33
2023-11-05T18:08:24.855Z,4.53
2023-11-05T18:10:53.942Z,2.40
2023-11-05T18:13:22.035Z,2.08
2023-11-05T18:15:50.088Z,2.00
2023-11-05T18:18:16.970Z,3.35
2023-11-05T18:20:43.867Z,2.13
2023-11-05T18:23:10.521Z,2.55
2023-11-05T18:25:37.431Z,2.22
2023-11-05T18:28:04.950Z,2.05
2023-11-05T18:30:31.837Z,3.58
2023-11-05T18:32:58.420Z,2.88
2023-11-05T18:35:25.246Z,1.77
2023-11-05T18:37:52.882Z,2.08
2023-11-05T18:40:19.606Z,2.28
2023-11-05T18:42:46.286Z,2.00
2023-11-05T18:45:12.976Z,1.85
2023-11-05T18:47:39.741Z,1.63
2023-11-05T18:50:06.789Z,1.70
2023-11-05T18:52:33.700Z,1.75
2023-11-05T18:55:00.402Z,1.45
2023-11-05T18:57:28.937Z,2.22
2023-11-05T18:59:55.895Z,1.80
2023-11-05T19:02:22.733Z,2.20
2023-11-05T19:04:49.435Z,2.00
2023-11-05T19:07:16.301Z,1.77
2023-11-05T19:09:43.427Z,1.80
2023-11-05T19:12:10.243Z,2.47
2023-11-05T19:14:43.815Z,2.50
2023-11-05T19:17:10.500Z,2.40
2023-11-05T19:19:37.201Z,2.45
2023-11-05T19:22:10.244Z,2.85
2023-11-05T19:24:41.267Z,2.65
2023-11-05T19:27:09.964Z,2.90
2023-11-05T19:29:38.874Z,2.20
2023-11-05T19:32:08.450Z,3.30
2023-11-05T19:34:36.600Z,3.05
2023-11-05T19:37:03.500Z,2.70
2023-11-05T19:39:30.007Z,2.33
2023-11-05T19:44:23.098Z,2.75
2023-11-05T19:46:51.974Z,2.47
2023-11-05T19:49:18.649Z,2.33
2023-11-05T19:51:45.420Z,2.35
2023-11-05T19:54:12.944Z,2.85
2023-11-05T19:56:39.521Z,2.75
2023-11-05T19:59:08.201Z,2.53
2023-11-05T20:01:34.956Z,5.03
2023-11-05T20:04:03.201Z,2.50
2023-11-05T20:06:30.191Z,3.25
2023-11-05T20:08:56.847Z,3.05
2023-11-05T20:11:23.458Z,2.45
2023-11-05T20:13:50.554Z,2.28
2023-11-05T20:16:17.740Z,2.20
2023-11-05T20:18:45.613Z,2.60
2023-11-05T20:21:16.178Z,1.92
2023-11-05T20:23:42.817Z,1.95
2023-11-05T20:28:41.053Z,2.13
2023-11-05T20:31:09.127Z,2.05
2023-11-05T20:33:35.767Z,1.88
2023-11-05T20:36:02.409Z,2.10
2023-11-05T20:38:28.933Z,2.05
2023-11-05T20:43:23.288Z,2.20
2023-11-05T20:45:50.596Z,2.15
2023-11-05T20:48:17.618Z,3.50
2023-11-05T20:50:44.663Z,4.93
2023-11-05T20:53:11.387Z,2.30
2023-11-05T20:55:38.469Z,2.80
2023-11-05T20:58:07.404Z,2.67
2023-11-05T21:00:36.692Z,2.38
2023-11-05T21:03:04.138Z,1.92
2023-11-05T21:05:30.887Z,5.40
2023-11-05T21:07:59.540Z,3.10
2023-11-05T21:10:30.690Z,3.67
2023-11-05T21:12:58.425Z,2.15
2023-11-05T21:17:51.388Z,2.67
2023-11-05T21:20:18.104Z,2.15
2023-11-05T21:22:45.608Z,1.75
2023-11-05T21:25:12.985Z,2.00
2023-11-05T21:27:40.365Z,2.45
2023-11-05T21:30:10.726Z,2.20
2023-11-05T21:32:40.513Z,2.10
2023-11-05T21:35:07.677Z,2.35
2023-11-05T21:37:34.453Z,2.05
2023-11-05T21:40:01.196Z,1.90
2023-11-05T21:42:28.396Z,2.30
2023-11-05T21:44:55.113Z,2.67
2023-11-05T21:47:22.403Z,2.20
2023-11-05T21:49:49.364Z,2.35
2023-11-05T21:52:16.847Z,2.35
2023-11-05T21:54:45.170Z,3.13
2023-11-05T21:57:12.155Z,2.50
2023-11-05T21:59:39.036Z,2.15
2023-11-05T22:02:05.827Z,2.45
2023-11-05T22:04:35.635Z,2.22
2023-11-05T22:07:03.922Z,2.15
2023-11-05T22:09:31.468Z,2.30
2023-11-05T22:11:58.091Z,2.58
2023-11-05T22:14:27.345Z,2.55
2023-11-05T22:16:54.185Z,2.30
2023-11-05T22:19:21.557Z,1.70
2023-11-05T22:21:48.629Z,2.35
2023-11-05T22:24:16.718Z,2.17
2023-11-05T22:26:43.509Z,2.20
2023-11-05T22:29:12.462Z,2.00
2023-11-05T22:31:39.023Z,1.80
2023-11-05T22:34:05.710Z,1.75
2023-11-05T22:36:33.423Z,2.28
2023-11-05T22:39:00.254Z,1.80
2023-11-05T22:41:26.861Z,2.03
2023-11-05T22:43:53.485Z,2.03
2023-11-05T22:46:19.956Z,2.30
2023-11-05T22:51:18.217Z,2.42
2023-11-05T22:53:45.640Z,2.00
2023-11-05T22:56:12.796Z,2.33
2023-11-05T22:58:40.414Z,2.10
2023-11-05T23:17:23.952Z,2.55
2023-11-05T23:19:50.747Z,2.22
2023-11-05T23:22:17.314Z,2.80
2023-11-05T23:24:45.290Z,2.88
2023-11-05T23:27:11.868Z,2.60
2023-11-05T23:29:38.480Z,2.83
2023-11-05T23:32:05.116Z,2.83
2023-11-05T23:34:31.771Z,3.00
2023-11-05T23:36:59.481Z,2.97
2023-11-05T23:39:26.016Z,2.65
2023-11-05T23:41:52.534Z,2.58
2023-11-05T23:44:19.119Z,3.05
2023-11-05T23:46:45.789Z,3.15
2023-11-05T23:49:13.157Z,2.50
2023-11-05T23:51:39.753Z,2.42
2023-11-05T23:56:32.855Z,2.20
2023-11-05T23:59:01.792Z,2.40
